createdAt,value
2022-09-29T00:00:49.977Z,97170.38
2022-09-29T00:03:17.780Z,97170.97
2022-09-29T00:05:55.244Z,97174.53
2022-09-29T00:08:24.623Z,97171.69
2022-09-29T00:10:51.152Z,97167.09
2022-09-29T00:13:18.536Z,97168.81
2022-09-29T00:16:01.376Z,97165.97
2022-09-29T00:18:29.417Z,97161.38
2022-09-29T00:21:19.668Z,97170.06
2022-09-29T00:23:46.724Z,97159.28
2022-09-29T00:26:16.985Z,97159.66
2022-09-29T00:28:49.772Z,97156.63
2022-09-29T00:31:16.652Z,97155.59
2022-09-29T00:33:43.265Z,97161.34
2022-09-29T00:36:17.903Z,97169.25
2022-09-29T00:38:47.203Z,97149.66
2022-09-29T00:41:20.404Z,97169.38
2022-09-29T00:43:53.177Z,97164.97
2022-09-29T00:46:25.841Z,97163.75
2022-09-29T00:48:55.156Z,97163.88
2022-09-29T00:51:21.988Z,97154.97
2022-09-29T00:53:49.465Z,97159.94
2022-09-29T00:56:17.831Z,97149.78
2022-09-29T00:58:54.823Z,97155.53
2022-09-29T01:01:28.778Z,97154.50
2022-09-29T01:04:03.516Z,97157.47
2022-09-29T01:06:37.397Z,97158.47
2022-09-29T01:09:10.491Z,97149.72
2022-09-29T01:11:37.400Z,97159.25
2022-09-29T01:14:06.900Z,97158.00
2022-09-29T01:16:35.094Z,97156.78
2022-09-29T01:19:07.005Z,97158.13
2022-09-29T01:21:55.867Z,97151.16
2022-09-29T01:24:28.503Z,97153.75
2022-09-29T01:27:18.908Z,97154.56
2022-09-29T01:30:04.044Z,97151.97
2022-09-29T01:32:58.260Z,97156.91
2022-09-29T01:35:37.269Z,97160.28
2022-09-29T01:38:22.323Z,97159.38
2022-09-29T01:41:11.958Z,97163.44
2022-09-29T01:43:52.430Z,97153.44
2022-09-29T01:46:31.510Z,97162.22
2022-09-29T01:48:59.211Z,97160.97
2022-09-29T01:51:36.873Z,97172.56
2022-09-29T01:54:10.121Z,97165.25
2022-09-29T01:56:43.613Z,97163.69
2022-09-29T01:59:20.903Z,97163.09
2022-09-29T02:01:51.941Z,97164.91
2022-09-29T02:04:31.877Z,97161.19
2022-09-29T02:07:07.306Z,97157.03
2022-09-29T02:09:44.504Z,97159.63
2022-09-29T02:12:18.014Z,97163.56
2022-09-29T02:14:48.240Z,97168.94
2022-09-29T02:17:30.085Z,97170.28
2022-09-29T02:19:58.804Z,97164.91
2022-09-29T02:22:25.538Z,97168.94
2022-09-29T02:24:55.713Z,97173.91
2022-09-29T02:27:22.979Z,97176.50
2022-09-29T02:29:49.966Z,97180.44
2022-09-29T02:32:16.953Z,97170.28
2022-09-29T02:34:48.385Z,97173.09
2022-09-29T02:37:44.969Z,97174.13
2022-09-29T02:40:47.527Z,97174.91
2022-09-29T02:43:29.254Z,97171.88
2022-09-29T02:46:13.066Z,97177.03
2022-09-29T02:48:58.262Z,97171.66
2022-09-29T02:51:38.963Z,97162.88
2022-09-29T02:54:44.233Z,97167.06
2022-09-29T02:57:22.336Z,97166.34
2022-09-29T03:00:09.759Z,97163.44
2022-09-29T03:02:38.240Z,97158.00
2022-09-29T03:05:15.093Z,97162.66
2022-09-29T03:07:42.523Z,97150.13
2022-09-29T03:10:10.445Z,97167.00
2022-09-29T03:12:37.823Z,97163.44
2022-09-29T03:15:05.750Z,97168.91
2022-09-29T03:17:32.332Z,97161.81
2022-09-29T03:19:59.032Z,97161.81
2022-09-29T03:22:26.405Z,97157.66
2022-09-29T03:24:52.883Z,97155.06
2022-09-29T03:27:19.561Z,97164.19
2022-09-29T03:29:46.194Z,97166.84
2022-09-29T03:32:12.741Z,97160.91
2022-09-29T03:34:39.275Z,97165.06
2022-09-29T03:37:05.824Z,97161.56
2022-09-29T03:39:32.431Z,97169.53
2022-09-29T03:41:59.020Z,97179.66
2022-09-29T03:44:25.548Z,97172.00
2022-09-29T03:46:52.086Z,97174.28
2022-09-29T03:49:18.724Z,97178.91
2022-09-29T03:51:45.271Z,97186.13
2022-09-29T03:54:14.063Z,97188.72
2022-09-29T03:56:40.585Z,97187.72
2022-09-29T03:59:10.538Z,97192.47
2022-09-29T04:01:38.255Z,97191.44
2022-09-29T04:04:09.456Z,97192.22
2022-09-29T04:06:36.505Z,97191.88
2022-09-29T04:09:05.859Z,97195.38
2022-09-29T04:11:32.391Z,97197.06
2022-09-29T04:13:58.934Z,97192.78
2022-09-29T04:16:25.786Z,97184.00
2022-09-29T04:18:52.407Z,97186.25
2022-09-29T04:21:21.841Z,97179.47
2022-09-29T04:23:49.931Z,97177.47
2022-09-29T04:26:17.231Z,97176.09
2022-09-29T04:28:43.818Z,97176.25
2022-09-29T04:31:10.403Z,97173.78
2022-09-29T04:33:39.196Z,97179.63
2022-09-29T04:36:06.427Z,97177.84
2022-09-29T04:38:33.398Z,97183.13
2022-09-29T04:41:00.388Z,97179.63
2022-09-29T04:43:27.032Z,97182.00
2022-09-29T04:45:53.728Z,97180.66
2022-09-29T04:48:20.359Z,97177.47
2022-09-29T04:50:47.002Z,97186.59
2022-09-29T04:53:15.241Z,97187.06
2022-09-29T04:55:41.721Z,97185.50
2022-09-29T04:58:08.304Z,97186.28
2022-09-29T05:00:35.160Z,97187.94
2022-09-29T05:03:01.719Z,97189.31
2022-09-29T05:05:28.291Z,97179.28
2022-09-29T05:07:54.818Z,97176.69
2022-09-29T05:10:21.641Z,97176.94
2022-09-29T05:12:51.443Z,97173.34
2022-09-29T05:15:24.808Z,97185.03
2022-09-29T05:17:52.839Z,97181.66
2022-09-29T05:20:21.821Z,97183.09
2022-09-29T05:22:48.432Z,97184.13
2022-09-29T05:25:17.471Z,97187.38
2022-09-29T05:27:43.910Z,97192.22
2022-09-29T05:30:10.824Z,97190.06
2022-09-29T05:32:37.680Z,97194.72
2022-09-29T05:35:04.451Z,97186.19
2022-09-29T05:37:30.937Z,97190.44
2022-09-29T05:39:57.377Z,97192.91
2022-09-29T05:42:25.631Z,97182.78
2022-09-29T05:44:52.039Z,97182.41
2022-09-29T05:47:20.210Z,97190.09
2022-09-29T05:49:46.675Z,97184.34
2022-09-29T05:52:13.208Z,97190.88
2022-09-29T05:54:39.687Z,97183.47
2022-09-29T05:57:08.965Z,97176.06
2022-09-29T05:59:35.586Z,97190.59
2022-09-29T06:02:02.218Z,97183.75
2022-09-29T06:04:28.730Z,97182.84
2022-09-29T06:06:56.151Z,97180.84
2022-09-29T06:09:23.058Z,97179.28
2022-09-29T06:11:49.662Z,97189.81
2022-09-29T06:14:17.916Z,97192.53
2022-09-29T06:16:44.671Z,97196.63
2022-09-29T06:19:11.533Z,97207.88
2022-09-29T06:21:39.782Z,97209.25
2022-09-29T06:24:07.427Z,97212.53
2022-09-29T06:26:34.573Z,97207.13
2022-09-29T06:29:01.319Z,97197.91
2022-09-29T06:31:29.693Z,97201.41
2022-09-29T06:34:01.440Z,97201.53
2022-09-29T06:36:52.665Z,97198.84
2022-09-29T06:39:21.478Z,97208.53
2022-09-29T06:41:55.125Z,97209.19
2022-09-29T06:44:30.807Z,97207.75
2022-09-29T06:46:58.036Z,97204.72
2022-09-29T06:49:28.657Z,97213.25
2022-09-29T06:51:55.200Z,97218.56
2022-09-29T06:54:25.317Z,97215.97
2022-09-29T06:56:53.495Z,97216.88
2022-09-29T06:59:20.317Z,97224.53
2022-09-29T07:01:52.377Z,97218.88
2022-09-29T07:04:21.327Z,97227.91
2022-09-29T07:06:49.409Z,97229.38
2022-09-29T07:09:16.383Z,97226.00
2022-09-29T07:11:47.634Z,97222.19
2022-09-29T07:14:18.563Z,97220.56
2022-09-29T07:16:45.762Z,97228.56
2022-09-29T07:19:12.415Z,97235.53
2022-09-29T07:21:39.057Z,97233.03
2022-09-29T07:24:08.126Z,97232.44
2022-09-29T07:26:34.836Z,97246.69
2022-09-29T07:29:01.482Z,97246.34
2022-09-29T07:31:30.010Z,97244.75
2022-09-29T07:33:57.665Z,97249.44
2022-09-29T07:36:24.320Z,97239.06
2022-09-29T07:38:52.292Z,97248.28
2022-09-29T07:41:20.927Z,97249.28
2022-09-29T07:43:47.754Z,97254.63
2022-09-29T07:46:14.458Z,97254.63
2022-09-29T07:48:41.097Z,97253.38
2022-09-29T07:51:15.627Z,97259.09
2022-09-29T07:53:42.988Z,97260.88
2022-09-29T07:56:19.806Z,97260.25
2022-09-29T07:58:47.475Z,97262.94
2022-09-29T08:01:16.218Z,97253.44
2022-09-29T08:03:48.783Z,97251.09
2022-09-29T08:06:15.377Z,97261.38
2022-09-29T08:08:53.314Z,97256.53
2022-09-29T08:11:31.553Z,97250.06
2022-09-29T08:13:59.311Z,97256.75
2022-09-29T08:16:26.037Z,97249.25
2022-09-29T08:18:52.695Z,97254.69
2022-09-29T08:21:19.511Z,97256.44
2022-09-29T08:23:46.227Z,97256.63
2022-09-29T08:26:15.705Z,97268.44
2022-09-29T08:28:43.354Z,97260.94
2022-09-29T08:31:12.550Z,97250.94
2022-09-29T08:33:39.245Z,97250.34
2022-09-29T08:36:14.406Z,97248.28
2022-09-29T08:38:43.317Z,97251.22
2022-09-29T08:41:23.845Z,97249.16
2022-09-29T08:43:53.049Z,97251.03
2022-09-29T08:46:35.472Z,97255.38
2022-09-29T08:49:10.135Z,97251.44
2022-09-29T08:51:43.765Z,97254.03
2022-09-29T08:54:34.720Z,97255.66
2022-09-29T08:57:05.365Z,97255.31
2022-09-29T08:59:44.611Z,97251.13
2022-09-29T09:02:29.748Z,97265.06
2022-09-29T09:05:33.255Z,97251.66
2022-09-29T09:08:23.635Z,97259.63
2022-09-29T09:11:09.108Z,97259.97
2022-09-29T09:13:44.169Z,97260.69
2022-09-29T09:16:21.747Z,97253.47
2022-09-29T09:21:36.546Z,97247.41
2022-09-29T09:24:13.228Z,97255.81
2022-09-29T09:26:47.142Z,97254.25
2022-09-29T09:29:16.731Z,97258.09
2022-09-29T09:31:57.864Z,97262.22
2022-09-29T09:34:41.110Z,97267.72
2022-09-29T09:37:20.393Z,97258.00
2022-09-29T09:39:53.857Z,97257.19
2022-09-29T09:42:26.476Z,97256.50
2022-09-29T09:45:01.228Z,97252.09
2022-09-29T09:48:06.247Z,97246.63
2022-09-29T09:50:33.534Z,97249.75
2022-09-29T09:53:05.534Z,97252.13
2022-09-29T09:55:36.931Z,97251.09
2022-09-29T09:58:35.716Z,97252.66
2022-09-29T10:01:06.022Z,97253.19
2022-09-29T10:03:33.343Z,97252.63
2022-09-29T10:06:00.720Z,97252.75
2022-09-29T10:08:27.178Z,97251.81
2022-09-29T10:10:59.058Z,97250.50
2022-09-29T10:13:28.696Z,97248.50
2022-09-29T10:16:24.046Z,97256.38
2022-09-29T10:18:52.753Z,97265.34
2022-09-29T10:21:23.696Z,97263.59
2022-09-29T10:23:52.908Z,97262.47
2022-09-29T10:26:25.896Z,97254.91
2022-09-29T10:29:04.270Z,97258.47
2022-09-29T10:31:36.100Z,97266.03
2022-09-29T10:34:23.488Z,97260.59
2022-09-29T10:37:04.119Z,97259.44
2022-09-29T10:39:48.585Z,97252.91
2022-09-29T10:42:21.089Z,97258.25
2022-09-29T10:45:12.145Z,97255.97
2022-09-29T10:47:38.764Z,97257.53
2022-09-29T10:50:34.908Z,97257.88
2022-09-29T10:53:21.739Z,97257.16
2022-09-29T10:55:59.302Z,97268.91
2022-09-29T10:58:53.142Z,97267.81
2022-09-29T11:01:26.235Z,97269.91
2022-09-29T11:04:06.841Z,97263.00
2022-09-29T11:06:35.056Z,97280.91
2022-09-29T11:09:31.150Z,97275.91
2022-09-29T11:12:01.553Z,97275.31
2022-09-29T11:14:38.793Z,97271.41
2022-09-29T11:17:24.052Z,97279.22
2022-09-29T11:19:52.820Z,97284.28
2022-09-29T11:22:49.351Z,97282.28
2022-09-29T11:25:49.901Z,97277.38
2022-09-29T11:28:25.569Z,97278.78
2022-09-29T11:31:09.569Z,97290.91
2022-09-29T11:34:11.273Z,97289.22
2022-09-29T11:37:07.236Z,97289.97
2022-09-29T11:39:35.093Z,97300.22
2022-09-29T11:42:27.344Z,97302.09
2022-09-29T11:45:03.488Z,97301.69
2022-09-29T11:47:42.004Z,97297.06
2022-09-29T11:50:27.565Z,97288.31
2022-09-29T11:53:12.792Z,97298.91
2022-09-29T11:55:52.052Z,97294.28
2022-09-29T11:58:32.887Z,97299.38
2022-09-29T12:01:18.192Z,97296.72
2022-09-29T12:04:29.262Z,97297.19
2022-09-29T12:07:05.169Z,97296.69
2022-09-29T12:09:40.997Z,97295.28
2022-09-29T12:12:24.618Z,97293.28
2022-09-29T12:15:03.573Z,97290.50
2022-09-29T12:17:34.424Z,97295.22
2022-09-29T12:20:09.546Z,97285.56
2022-09-29T12:22:37.432Z,97284.53
2022-09-29T12:25:10.691Z,97278.66
2022-09-29T12:27:42.276Z,97277.59
2022-09-29T12:30:31.151Z,97280.28
2022-09-29T12:33:26.230Z,97281.25
2022-09-29T12:36:29.976Z,97294.53
2022-09-29T12:39:14.710Z,97298.41
2022-09-29T12:41:47.010Z,97288.16
2022-09-29T12:44:23.897Z,97288.41
2022-09-29T12:47:00.284Z,97290.88
2022-09-29T12:49:43.691Z,97286.66
2022-09-29T12:52:20.859Z,97288.34
2022-09-29T12:54:54.018Z,97281.94
2022-09-29T12:57:30.343Z,97282.78
2022-09-29T13:00:08.447Z,97280.59
2022-09-29T13:03:05.960Z,97287.13
2022-09-29T13:05:52.774Z,97282.75
2022-09-29T13:09:01.549Z,97280.69
2022-09-29T13:11:49.256Z,97279.22
2022-09-29T13:14:24.330Z,97278.78
2022-09-29T13:17:18.303Z,97278.78
2022-09-29T13:20:26.802Z,97280.19
2022-09-29T13:23:14.420Z,97277.78
2022-09-29T13:26:13.379Z,97279.84
2022-09-29T13:28:48.757Z,97274.50
2022-09-29T13:31:21.653Z,97284.09
2022-09-29T13:33:51.501Z,97283.00
2022-09-29T13:36:28.298Z,97276.75
2022-09-29T13:38:58.368Z,97281.53
2022-09-29T13:41:25.234Z,97291.47
2022-09-29T13:43:51.746Z,97291.78
2022-09-29T13:46:30.427Z,97296.19
2022-09-29T13:49:12.214Z,97304.03
2022-09-29T13:51:46.056Z,97310.13
2022-09-29T13:54:36.131Z,97321.19
2022-09-29T13:57:26.987Z,97326.19
2022-09-29T13:59:54.330Z,97325.41
2022-09-29T14:02:28.348Z,97330.91
2022-09-29T14:04:57.503Z,97325.91
2022-09-29T14:07:50.795Z,97328.28
2022-09-29T14:10:39.593Z,97337.69
2022-09-29T14:13:26.885Z,97330.88
2022-09-29T14:16:26.953Z,97332.44
2022-09-29T14:19:01.998Z,97334.53
2022-09-29T14:21:52.295Z,97340.53
2022-09-29T14:24:39.420Z,97340.00
2022-09-29T14:27:35.364Z,97338.66
2022-09-29T14:30:10.082Z,97350.16
2022-09-29T14:32:46.815Z,97347.78
2022-09-29T14:35:21.897Z,97344.91
2022-09-29T14:37:58.623Z,97346.50
2022-09-29T14:40:31.045Z,97343.09
2022-09-29T14:43:17.713Z,97352.50
2022-09-29T14:46:12.459Z,97353.84
2022-09-29T14:49:39.993Z,97351.75
2022-09-29T14:52:33.581Z,97357.50
2022-09-29T14:55:21.718Z,97370.53
2022-09-29T14:57:54.023Z,97366.59
2022-09-29T15:00:25.735Z,97372.88
2022-09-29T15:03:00.271Z,97375.19
2022-09-29T15:05:42.140Z,97374.94
2022-09-29T15:08:33.015Z,97380.44
2022-09-29T15:10:59.529Z,97386.44
2022-09-29T15:13:31.854Z,97397.34
2022-09-29T15:16:26.037Z,97388.16
2022-09-29T15:19:35.611Z,97396.47
2022-09-29T15:22:20.281Z,97397.75
2022-09-29T15:24:55.749Z,97401.38
2022-09-29T15:27:22.809Z,97401.13
2022-09-29T15:29:58.039Z,97404.25
2022-09-29T15:32:28.093Z,97405.28
2022-09-29T15:35:03.345Z,97410.53
2022-09-29T15:37:51.815Z,97409.50
2022-09-29T15:40:22.214Z,97414.44
2022-09-29T15:42:48.953Z,97419.91
2022-09-29T15:45:23.487Z,97421.47
2022-09-29T15:48:01.109Z,97435.34
2022-09-29T15:50:33.597Z,97430.88
2022-09-29T15:53:04.750Z,97430.50
2022-09-29T15:55:34.019Z,97433.63
2022-09-29T15:58:03.005Z,97439.41
2022-09-29T16:00:38.501Z,97438.53
2022-09-29T16:03:52.979Z,97450.06
2022-09-29T16:06:38.161Z,97446.41
2022-09-29T16:09:19.224Z,97459.22
2022-09-29T16:11:49.926Z,97451.63
2022-09-29T16:14:23.928Z,97464.16
2022-09-29T16:16:53.770Z,97456.06
2022-09-29T16:19:30.622Z,97463.94
2022-09-29T16:22:00.082Z,97463.16
2022-09-29T16:24:31.133Z,97472.53
2022-09-29T16:27:03.715Z,97470.41
2022-09-29T16:29:34.356Z,97469.81
2022-09-29T16:32:32.944Z,97472.66
2022-09-29T16:35:55.020Z,97468.34
2022-09-29T16:38:49.576Z,97468.91
2022-09-29T16:41:31.805Z,97465.50
2022-09-29T16:44:22.901Z,97475.63
2022-09-29T16:46:56.267Z,97482.44
2022-09-29T16:49:29.959Z,97486.34
2022-09-29T17:01:00.654Z,97489.50
2022-09-29T17:03:31.084Z,97486.56
2022-09-29T17:09:30.144Z,97495.25
2022-09-29T17:12:26.289Z,97497.50
2022-09-29T17:14:55.746Z,97495.94
2022-09-29T17:18:14.954Z,97501.16
2022-09-29T17:21:14.939Z,97490.16
2022-09-29T17:23:54.946Z,97497.94
2022-09-29T17:27:07.923Z,97499.97
2022-09-29T17:29:36.203Z,97501.19
2022-09-29T17:32:11.137Z,97505.09
2022-09-29T17:35:55.885Z,97507.31
2022-09-29T17:41:46.063Z,97507.66
2022-09-29T17:44:13.342Z,97512.41
2022-09-29T17:46:40.058Z,97502.97
2022-09-29T17:49:12.866Z,97506.03
2022-09-29T17:51:59.734Z,97505.25
2022-09-29T17:54:29.309Z,97516.22
2022-09-29T17:56:58.966Z,97514.56
2022-09-29T17:59:28.775Z,97518.53
2022-09-29T18:01:57.647Z,97524.75
2022-09-29T18:04:25.475Z,97520.41
2022-09-29T18:06:54.558Z,97520.94
2022-09-29T18:09:21.422Z,97513.59
2022-09-29T18:11:51.471Z,97510.78
2022-09-29T18:14:18.476Z,97508.81
2022-09-29T18:21:46.301Z,97507.81
2022-09-29T18:24:13.491Z,97506.75
2022-09-29T18:26:56.425Z,97506.13
2022-09-29T18:29:34.405Z,97515.41
2022-09-29T18:32:01.177Z,97522.56
2022-09-29T18:34:31.106Z,97526.13
2022-09-29T18:36:57.994Z,97528.81
2022-09-29T18:39:51.636Z,97528.22
2022-09-29T18:42:18.361Z,97523.06
2022-09-29T18:44:45.952Z,97528.63
2022-09-29T18:47:12.983Z,97535.97
2022-09-29T18:50:15.563Z,97534.94
2022-09-29T18:52:42.694Z,97536.19
2022-09-29T18:55:11.181Z,97542.44
2022-09-29T18:57:43.249Z,97549.34
2022-09-29T19:00:19.843Z,97561.00
2022-09-29T19:03:10.709Z,97559.94
2022-09-29T19:05:44.954Z,97567.50
2022-09-29T19:08:23.383Z,97572.25
2022-09-29T19:11:13.513Z,97578.19
2022-09-29T19:14:03.057Z,97578.31
2022-09-29T19:16:38.176Z,97583.19
2022-09-29T19:19:25.473Z,97585.47
2022-09-29T19:21:53.729Z,97587.44
2022-09-29T19:24:30.585Z,97590.56
2022-09-29T19:27:26.944Z,97594.41
2022-09-29T19:30:03.500Z,97589.13
2022-09-29T19:32:33.441Z,97595.47
2022-09-29T19:35:03.293Z,97596.63
2022-09-29T19:37:53.995Z,97599.69
2022-09-29T19:40:26.431Z,97604.22
2022-09-29T19:42:53.411Z,97609.06
2022-09-29T19:45:32.748Z,97610.16
2022-09-29T19:48:07.536Z,97613.63
2022-09-29T19:50:58.156Z,97616.59
2022-09-29T19:53:38.092Z,97622.25
2022-09-29T19:56:16.393Z,97609.25
2022-09-29T19:59:09.606Z,97614.47
2022-09-29T20:01:37.838Z,97618.63
2022-09-29T20:04:04.742Z,97618.06
2022-09-29T20:06:31.843Z,97623.06
2022-09-29T20:09:00.103Z,97622.84
2022-09-29T20:11:27.036Z,97619.03
2022-09-29T20:13:54.598Z,97613.59
2022-09-29T20:16:27.130Z,97615.16
2022-09-29T20:18:54.026Z,97620.38
2022-09-29T20:21:21.534Z,97623.19
2022-09-29T20:23:49.687Z,97626.13
2022-09-29T20:26:17.658Z,97634.28
2022-09-29T20:28:46.985Z,97634.41
2022-09-29T20:31:17.663Z,97638.34
2022-09-29T20:33:52.911Z,97640.84
2022-09-29T20:36:29.173Z,97638.22
2022-09-29T20:38:58.267Z,97650.56
2022-09-29T20:41:31.549Z,97645.44
2022-09-29T20:44:02.629Z,97646.56
2022-09-29T20:47:04.808Z,97645.00
2022-09-29T20:49:31.698Z,97659.22
2022-09-29T20:52:04.127Z,97654.69
2022-09-29T20:54:35.740Z,97651.94
2022-09-29T20:57:03.620Z,97664.00
2022-09-29T20:59:33.931Z,97660.28
2022-09-29T21:02:00.834Z,97667.84
2022-09-29T21:04:28.066Z,97670.53
2022-09-29T21:06:59.879Z,97672.97
2022-09-29T21:09:30.605Z,97681.09
2022-09-29T21:12:00.494Z,97680.06
2022-09-29T21:14:28.180Z,97684.31
2022-09-29T21:16:56.018Z,97678.78
2022-09-29T21:19:30.292Z,97689.44
2022-09-29T21:22:01.258Z,97686.13
2022-09-29T21:24:28.142Z,97684.41
2022-09-29T21:26:55.009Z,97691.41
2022-09-29T21:29:24.738Z,97691.63
2022-09-29T21:31:51.578Z,97697.91
2022-09-29T21:34:18.731Z,97692.22
2022-09-29T21:36:48.489Z,97683.50
2022-09-29T21:39:15.366Z,97690.94
2022-09-29T21:41:45.893Z,97703.81
2022-09-29T21:44:26.163Z,97705.84
2022-09-29T21:46:53.092Z,97710.50
2022-09-29T21:49:20.885Z,97714.75
2022-09-29T21:51:49.871Z,97714.25
2022-09-29T21:54:22.994Z,97723.19
2022-09-29T21:56:58.651Z,97727.06
2022-09-29T22:00:05.602Z,97722.28
2022-09-29T22:03:06.659Z,97719.19
2022-09-29T22:05:35.136Z,97724.22
2022-09-29T22:08:01.990Z,97734.22
2022-09-29T22:10:28.691Z,97733.69
2022-09-29T22:12:55.662Z,97734.91
2022-09-29T22:15:25.299Z,97727.56
2022-09-29T22:17:52.642Z,97727.97
2022-09-29T22:20:19.380Z,97727.16
2022-09-29T22:22:51.555Z,97733.31
2022-09-29T22:25:23.867Z,97737.88
2022-09-29T22:27:50.742Z,97734.91
2022-09-29T22:30:17.738Z,97737.13
2022-09-29T22:32:44.493Z,97740.34
2022-09-29T22:35:11.118Z,97737.97
2022-09-29T22:37:40.700Z,97745.31
2022-09-29T22:40:09.181Z,97747.34
2022-09-29T22:42:56.143Z,97743.56
2022-09-29T22:45:37.339Z,97744.59
2022-09-29T22:48:13.864Z,97752.13
2022-09-29T22:50:47.477Z,97759.53
2022-09-29T22:53:42.921Z,97768.69
2022-09-29T22:56:30.816Z,97761.28
2022-09-29T22:59:07.663Z,97769.13
2022-09-29T23:01:34.705Z,97773.88
2022-09-29T23:04:01.985Z,97771.75
2022-09-29T23:07:07.112Z,97774.19
2022-09-29T23:09:38.680Z,97766.25
2022-09-29T23:15:12.901Z,97772.00
2022-09-29T23:17:39.842Z,97774.81
2022-09-29T23:20:09.898Z,97765.25
2022-09-29T23:22:36.582Z,97768.44
2022-09-29T23:25:04.108Z,97773.50
2022-09-29T23:27:33.260Z,97772.69
2022-09-29T23:30:03.278Z,97773.84
2022-09-29T23:32:29.983Z,97772.47
2022-09-29T23:35:02.343Z,97772.31
2022-09-29T23:37:52.210Z,97783.19
2022-09-29T23:40:31.526Z,97781.66
2022-09-29T23:42:58.825Z,97783.84
2022-09-29T23:45:25.725Z,97788.72
2022-09-29T23:47:55.431Z,97782.59
2022-09-29T23:50:22.589Z,97774.84
2022-09-29T23:52:49.247Z,97777.50
2022-09-29T23:55:22.327Z,97779.53
2022-09-29T23:57:51.657Z,97775.75
